createdAt,value
2018-02-22T00:00:37.791Z,87.4
2018-02-22T00:01:47.831Z,87.31
2018-02-22T00:02:57.890Z,87.31
2018-02-22T00:04:07.945Z,87.5
2018-02-22T00:05:17.994Z,87.31
2018-02-22T00:06:27.801Z,87.5
2018-02-22T00:07:37.346Z,87.31
2018-02-22T00:08:47.163Z,87.31
2018-02-22T00:09:57.216Z,87.5
2018-02-22T00:11:07.018Z,87.21
2018-02-22T00:12:16.537Z,87.02
2018-02-22T00:13:26.073Z,87.21
2018-02-22T00:14:35.638Z,87.12
2018-02-22T00:15:45.160Z,87.4
2018-02-22T00:16:55.225Z,87.02
2018-02-22T00:18:05.309Z,87.5
2018-02-22T00:19:15.095Z,87.5
2018-02-22T00:20:25.170Z,87.5
2018-02-22T00:21:35.217Z,87.31
2018-02-22T00:22:44.754Z,87.31
2018-02-22T00:23:54.550Z,87.21
2018-02-22T00:25:04.338Z,87.02
2018-02-22T00:26:14.380Z,87.78
2018-02-22T00:27:24.438Z,87.21
2018-02-22T00:28:34.212Z,87.5
2018-02-22T00:29:43.994Z,87.02
2018-02-22T00:30:54.047Z,87.21
2018-02-22T00:32:03.878Z,87.02
2018-02-22T00:33:13.933Z,87.21
2018-02-22T00:34:23.996Z,87.78
2018-02-22T00:35:33.798Z,87.78
2018-02-22T00:36:43.851Z,87.12
2018-02-22T00:37:53.638Z,87.78
2018-02-22T00:39:02.960Z,87.12
2018-02-22T00:40:13.006Z,87.21
2018-02-22T00:41:23.058Z,87.4
2018-02-22T00:42:33.124Z,87.4
2018-02-22T00:43:42.921Z,87.4
2018-02-22T00:44:52.477Z,87.12
2018-02-22T00:46:02.279Z,87.5
2018-02-22T00:47:12.069Z,87.5
2018-02-22T00:48:22.139Z,87.5
2018-02-22T00:49:31.924Z,87.69
2018-02-22T00:50:41.777Z,87.5
2018-02-22T00:51:51.581Z,87.4
2018-02-22T00:53:01.656Z,87.59
2018-02-22T00:54:11.755Z,87.5
2018-02-22T00:55:21.554Z,87.69
2018-02-22T00:56:31.610Z,87.4
2018-02-22T00:57:41.425Z,87.21
2018-02-22T00:58:51.461Z,87.21
2018-02-22T01:00:01.251Z,87.02
2018-02-22T01:01:11.733Z,87.69
2018-02-22T01:02:21.835Z,87.78
2018-02-22T01:03:31.400Z,87.4
2018-02-22T01:04:41.206Z,87.31
2018-02-22T01:05:50.987Z,87.21
2018-02-22T01:07:01.059Z,87.4
2018-02-22T01:08:10.899Z,87.4
2018-02-22T01:09:20.948Z,87.78
2018-02-22T01:10:30.744Z,87.4
2018-02-22T01:11:40.807Z,87.4
2018-02-22T01:12:50.869Z,87.59
2018-02-22T01:14:00.996Z,87.78
2018-02-22T01:15:11.061Z,87.5
2018-02-22T01:16:20.852Z,87.5
2018-02-22T01:17:30.380Z,87.21
2018-02-22T01:18:40.184Z,87.4
2018-02-22T01:19:49.972Z,87.78
2018-02-22T01:21:00.027Z,87.59
2018-02-22T01:22:09.804Z,87.59
2018-02-22T01:23:19.321Z,87.78
2018-02-22T01:24:28.837Z,87.5
2018-02-22T01:25:38.892Z,87.4
2018-02-22T01:26:48.670Z,87.31
2018-02-22T01:27:58.198Z,87.4
2018-02-22T01:29:08.008Z,87.59
2018-02-22T01:30:18.065Z,87.21
2018-02-22T01:31:28.988Z,87.02
2018-02-22T01:32:38.257Z,87.69
2018-02-22T01:33:48.387Z,87.5
2018-02-22T01:34:57.908Z,87.5
2018-02-22T01:36:08.011Z,87.5
2018-02-22T01:37:17.806Z,87.5
2018-02-22T01:38:27.341Z,87.59
2018-02-22T01:39:37.133Z,87.69
2018-02-22T01:40:46.922Z,87.59
2018-02-22T01:41:56.993Z,87.59
2018-02-22T01:43:07.051Z,87.59
2018-02-22T01:44:16.844Z,87.5
2018-02-22T01:45:26.905Z,87.4
2018-02-22T01:46:36.980Z,87.5
2018-02-22T01:47:46.768Z,87.59
2018-02-22T01:48:56.609Z,87.59
2018-02-22T01:50:06.124Z,87.5
2018-02-22T01:51:16.168Z,87.59
2018-02-22T01:52:25.964Z,87.59
2018-02-22T01:53:35.766Z,87.69
2018-02-22T01:54:45.819Z,87.5
2018-02-22T01:55:55.631Z,87.69
2018-02-22T01:57:05.167Z,87.5
2018-02-22T01:58:15.234Z,87.5
2018-02-22T01:59:25.310Z,87.78
2018-02-22T02:00:35.109Z,87.4
2018-02-22T02:01:44.904Z,87.21
2018-02-22T02:02:54.731Z,87.12
2018-02-22T02:04:04.820Z,87.21
2018-02-22T02:05:14.862Z,87.12
2018-02-22T02:06:24.650Z,87.78
2018-02-22T02:07:34.452Z,87.4
2018-02-22T02:08:44.509Z,87.69
2018-02-22T02:09:54.568Z,87.5
2018-02-22T02:11:04.622Z,87.31
2018-02-22T02:12:14.679Z,87.78
2018-02-22T02:13:24.501Z,87.4
2018-02-22T02:14:34.552Z,87.4
2018-02-22T02:15:44.348Z,87.21
2018-02-22T02:16:54.408Z,87.4
2018-02-22T02:18:04.208Z,87.69
2018-02-22T02:19:14.033Z,87.5
2018-02-22T02:20:24.105Z,87.59
2018-02-22T02:21:34.143Z,87.59
2018-02-22T02:22:44.200Z,87.59
2018-02-22T02:23:54.250Z,87.59
2018-02-22T02:25:04.048Z,87.5
2018-02-22T02:26:13.847Z,87.5
2018-02-22T02:27:23.651Z,87.5
2018-02-22T02:28:33.442Z,87.5
2018-02-22T02:29:43.244Z,87.5
2018-02-22T02:30:53.044Z,87.5
2018-02-22T02:32:03.143Z,87.59
2018-02-22T02:33:12.948Z,87.59
2018-02-22T02:34:22.228Z,87.5
2018-02-22T02:35:31.507Z,87.5
2018-02-22T02:36:41.552Z,87.21
2018-02-22T02:37:51.372Z,87.5
2018-02-22T02:39:01.426Z,87.5
2018-02-22T02:40:11.501Z,87.78
2018-02-22T02:41:21.562Z,87.69
2018-02-22T02:42:31.350Z,87.5
2018-02-22T02:43:40.867Z,87.5
2018-02-22T02:44:50.655Z,87.31
2018-02-22T02:46:00.449Z,87.12
2018-02-22T02:47:10.257Z,87.5
2018-02-22T02:48:20.319Z,87.59
2018-02-22T02:49:30.399Z,87.31
2018-02-22T02:50:40.497Z,87.12
2018-02-22T02:51:50.558Z,87.5
2018-02-22T02:53:00.372Z,87.5
2018-02-22T02:54:10.456Z,87.5
2018-02-22T02:55:20.511Z,87.59
2018-02-22T02:56:30.320Z,87.5
2018-02-22T02:57:40.120Z,87.69
2018-02-22T02:58:50.169Z,87.5
2018-02-22T02:59:59.966Z,87.21
2018-02-22T03:01:09.980Z,87.5
2018-02-22T03:02:19.511Z,87.69
2018-02-22T03:03:29.586Z,87.59
2018-02-22T03:04:39.645Z,87.59
2018-02-22T03:05:49.700Z,87.5
2018-02-22T03:37:09.821Z,82.83
2018-02-22T03:38:19.351Z,82.64
2018-02-22T03:39:29.136Z,84.25
2018-02-22T03:40:38.951Z,85.76
2018-02-22T03:41:49.003Z,86.23
2018-02-22T03:42:59.056Z,86.8
2018-02-22T03:44:08.851Z,87.37
2018-02-22T03:45:18.393Z,87.55
2018-02-22T03:46:27.651Z,88.03
2018-02-22T03:47:37.698Z,88.12
2018-02-22T03:48:47.742Z,88.55
2018-02-22T03:49:57.816Z,88.64
2018-02-22T03:51:07.621Z,88.64
2018-02-22T03:52:17.410Z,88.64
2018-02-22T03:53:27.491Z,88.64
2018-02-22T03:54:37.548Z,88.36
2018-02-22T03:55:47.336Z,88.49
2018-02-22T03:56:57.382Z,88.49
2018-02-22T03:58:07.440Z,88.21
2018-02-22T03:59:16.686Z,88.31
2018-02-22T04:00:26.729Z,87.93
2018-02-22T04:01:36.772Z,88.12
2018-02-22T04:02:47.043Z,88.12
2018-02-22T04:03:56.848Z,87.93
2018-02-22T04:05:06.645Z,87.65
2018-02-22T04:06:16.688Z,87.93
2018-02-22T04:07:26.737Z,88.02
2018-02-22T04:08:36.316Z,88.12
2018-02-22T04:09:46.112Z,87.69
2018-02-22T04:10:56.157Z,88.07
2018-02-22T04:12:06.201Z,87.78
2018-02-22T04:13:16.311Z,87.69
2018-02-22T04:14:26.148Z,87.78
2018-02-22T04:15:35.945Z,87.59
2018-02-22T04:16:45.726Z,87.5
2018-02-22T04:17:55.785Z,87.5
2018-02-22T04:19:05.315Z,87.5
2018-02-22T04:20:15.102Z,87.59
2018-02-22T04:21:25.167Z,87.59
2018-02-22T04:22:34.972Z,87.5
2018-02-22T04:23:45.028Z,87.78
2018-02-22T04:24:54.820Z,87.5
2018-02-22T04:26:05.517Z,87.59
2018-02-22T04:27:16.869Z,87.59
2018-02-22T04:28:26.644Z,87.59
2018-02-22T04:29:36.420Z,87.5
2018-02-22T04:30:46.226Z,87.59
2018-02-22T04:31:55.999Z,87.69
2018-02-22T04:33:05.279Z,87.59
2018-02-22T04:34:15.379Z,87.59
2018-02-22T04:35:25.160Z,87.78
2018-02-22T04:36:34.699Z,87.69
2018-02-22T04:37:44.767Z,87.69
2018-02-22T04:38:54.834Z,87.78
2018-02-22T04:40:04.912Z,87.69
2018-02-22T04:41:14.445Z,87.4
2018-02-22T04:42:24.513Z,87.69
2018-02-22T04:43:34.593Z,87.78
2018-02-22T04:44:44.128Z,87.69
2018-02-22T04:45:53.665Z,87.88
2018-02-22T04:47:02.928Z,87.69
2018-02-22T04:48:12.199Z,87.69
2018-02-22T04:49:23.140Z,87.78
2018-02-22T04:50:32.412Z,87.78
2018-02-22T04:51:42.467Z,87.69
2018-02-22T04:52:52.517Z,87.88
2018-02-22T04:54:02.046Z,87.69
2018-02-22T04:55:12.119Z,87.69
2018-02-22T04:56:22.177Z,87.31
2018-02-22T04:57:31.953Z,87.21
2018-02-22T04:58:42.008Z,87.5
2018-02-22T04:59:52.066Z,87.5
2018-02-22T05:01:02.120Z,87.69
2018-02-22T05:02:12.176Z,87.78
2018-02-22T05:03:22.236Z,87.59
2018-02-22T05:04:32.285Z,87.59
2018-02-22T05:05:42.100Z,87.69
2018-02-22T05:06:52.166Z,87.88
2018-02-22T05:08:01.954Z,87.78
2018-02-22T05:09:11.765Z,87.78
2018-02-22T05:10:21.573Z,87.59
2018-02-22T05:11:31.360Z,87.78
2018-02-22T05:12:41.431Z,87.4
2018-02-22T05:13:51.234Z,87.5
2018-02-22T05:15:01.023Z,87.31
2018-02-22T05:16:11.069Z,87.5
2018-02-22T05:17:21.144Z,87.78
2018-02-22T05:18:30.691Z,87.69
2018-02-22T05:19:40.747Z,87.78
2018-02-22T05:20:50.523Z,87.59
2018-02-22T05:22:00.574Z,87.98
2018-02-22T05:23:10.380Z,87.69
2018-02-22T05:24:19.983Z,87.4
2018-02-22T05:25:30.033Z,87.21
2018-02-22T05:26:39.836Z,87.59
2018-02-22T05:27:49.630Z,87.59
2018-02-22T05:28:59.150Z,87.59
2018-02-22T05:30:08.927Z,87.5
2018-02-22T05:31:18.979Z,87.5
2018-02-22T05:32:28.501Z,87.88
2018-02-22T05:33:38.306Z,87.78
2018-02-22T05:34:48.094Z,87.98
2018-02-22T05:35:57.639Z,87.69
2018-02-22T05:37:07.432Z,87.4
2018-02-22T05:38:17.474Z,87.31
2018-02-22T05:39:27.008Z,87.5
2018-02-22T05:40:37.072Z,87.4
2018-02-22T05:41:46.870Z,87.78
2018-02-22T05:42:56.658Z,87.78
2018-02-22T05:44:06.196Z,87.69
2018-02-22T05:45:16.271Z,87.59
2018-02-22T05:46:26.052Z,87.59
2018-02-22T05:47:35.595Z,87.69
2018-02-22T05:48:45.111Z,87.69
2018-02-22T05:49:54.638Z,87.59
2018-02-22T05:51:04.423Z,87.78
2018-02-22T05:52:14.217Z,87.69
2018-02-22T05:53:23.473Z,87.88
2018-02-22T05:54:33.543Z,87.88
2018-02-22T05:55:43.333Z,87.5
2018-02-22T05:56:53.128Z,87.5
2018-02-22T05:58:03.219Z,87.78
2018-02-22T05:59:12.736Z,87.69
2018-02-22T06:00:22.787Z,87.69
2018-02-22T06:01:32.843Z,87.78
2018-02-22T06:02:42.653Z,87.69
2018-02-22T06:03:51.647Z,87.69
2018-02-22T06:05:01.498Z,87.88
2018-02-22T06:06:11.028Z,87.5
2018-02-22T06:07:21.082Z,87.12
2018-02-22T06:08:30.869Z,87.59
2018-02-22T06:09:40.772Z,87.59
2018-02-22T06:10:51.664Z,87.5
2018-02-22T06:12:01.751Z,87.4
2018-02-22T06:13:11.287Z,87.69
2018-02-22T06:14:21.079Z,87.5
2018-02-22T06:15:30.600Z,87.5
2018-02-22T06:16:40.156Z,87.4
2018-02-22T06:17:49.698Z,87.4
2018-02-22T06:18:59.485Z,87.4
2018-02-22T06:20:09.272Z,87.4
2018-02-22T06:21:19.334Z,87.59
2018-02-22T06:22:29.122Z,87.5
2018-02-22T06:23:39.883Z,87.4
2018-02-22T06:24:49.975Z,87.4
2018-02-22T06:26:00.047Z,87.21
2018-02-22T06:27:09.854Z,87.5
2018-02-22T06:28:19.646Z,87.21
2018-02-22T06:29:29.449Z,87.21
2018-02-22T06:30:38.993Z,87.31
2018-02-22T06:31:48.789Z,87.5
2018-02-22T06:32:58.599Z,87.5
2018-02-22T06:34:08.674Z,87.4
2018-02-22T06:35:18.751Z,87.45
2018-02-22T06:36:29.570Z,87.54
2018-02-22T06:37:39.642Z,87.64
2018-02-22T06:38:49.703Z,87.54
2018-02-22T06:39:59.510Z,87.26
2018-02-22T06:41:09.570Z,86.88
2018-02-22T06:42:19.356Z,86.88
2018-02-22T06:43:29.410Z,87.07
2018-02-22T06:44:39.205Z,86.98
2018-02-22T06:45:48.785Z,87.16
2018-02-22T06:46:58.852Z,87.16
2018-02-22T06:48:08.641Z,87.07
2018-02-22T06:49:18.701Z,87.16
2018-02-22T06:50:29.957Z,86.98
2018-02-22T06:51:40.079Z,87.07
2018-02-22T06:52:49.908Z,87.07
2018-02-22T06:53:59.953Z,87.07
2018-02-22T06:55:09.214Z,86.98
2018-02-22T06:56:18.745Z,87.16
2018-02-22T06:57:28.525Z,86.98
2018-02-22T06:58:38.060Z,87.07
2018-02-22T06:59:47.616Z,87.07
2018-02-22T07:00:57.659Z,87.07
2018-02-22T07:02:07.756Z,86.88
2018-02-22T07:03:18.044Z,87.07
2018-02-22T07:04:28.110Z,86.98
2018-02-22T07:05:37.928Z,87.07
2018-02-22T07:06:47.980Z,87.16
2018-02-22T07:07:57.790Z,86.98
2018-02-22T07:09:07.647Z,87.26
2018-02-22T07:10:17.424Z,87.16
2018-02-22T07:11:27.218Z,87.07
2018-02-22T07:12:36.740Z,86.98
2018-02-22T07:13:46.793Z,86.98
2018-02-22T07:14:56.316Z,87.07
2018-02-22T07:16:05.842Z,86.98
2018-02-22T07:17:15.683Z,87.26
2018-02-22T07:18:25.756Z,87.26
2018-02-22T07:19:35.816Z,87.07
2018-02-22T07:20:45.879Z,87.16
2018-02-22T07:21:55.400Z,87.07
2018-02-22T07:23:16.649Z,86.88
2018-02-22T07:24:27.208Z,87.3
2018-02-22T07:25:37.280Z,86.74
2018-02-22T07:26:47.364Z,86.83
2018-02-22T07:27:57.539Z,86.93
2018-02-22T07:29:07.321Z,86.83
2018-02-22T07:30:17.128Z,86.74
2018-02-22T07:31:26.965Z,86.35
2018-02-22T07:32:37.014Z,86.64
2018-02-22T07:33:46.798Z,86.35
2018-02-22T07:34:56.853Z,86.93
2018-02-22T07:36:07.002Z,86.45
2018-02-22T07:37:17.049Z,86.64
2018-02-22T07:38:26.051Z,86.64
2018-02-22T07:39:35.847Z,86.64
2018-02-22T07:40:45.646Z,86.64
2018-02-22T07:41:55.450Z,86.07
2018-02-22T07:43:05.031Z,86.21
2018-02-22T07:44:14.859Z,86.07
2018-02-22T07:45:24.656Z,86.16
2018-02-22T07:46:34.178Z,86.64
2018-02-22T07:47:44.231Z,86.16
2018-02-22T07:48:53.512Z,86.4
2018-02-22T07:50:03.580Z,85.93
2018-02-22T07:51:13.659Z,86.49
2018-02-22T07:52:23.715Z,86.11
2018-02-22T07:53:33.518Z,86.11
2018-02-22T07:54:43.350Z,86.02
2018-02-22T07:55:53.128Z,86.3
2018-02-22T07:57:02.658Z,86.59
2018-02-22T07:58:12.717Z,86.3
2018-02-22T07:59:22.526Z,85.74
2018-02-22T08:00:32.590Z,86.68
2018-02-22T08:01:42.115Z,85.93
2018-02-22T08:02:51.899Z,85.4
2018-02-22T08:04:01.439Z,85.4
2018-02-22T08:05:11.257Z,85.02
2018-02-22T08:06:21.306Z,85.3
2018-02-22T08:07:31.103Z,85.02
2018-02-22T08:08:41.161Z,85.4
2018-02-22T08:09:50.712Z,85.78
2018-02-22T08:11:00.520Z,85.68
2018-02-22T08:12:10.323Z,85.97
2018-02-22T08:13:20.382Z,86.63
2018-02-22T08:14:30.198Z,85.68
2018-02-22T08:15:39.996Z,86.16
2018-02-22T08:16:50.049Z,86.16
2018-02-22T08:17:59.898Z,85.97
2018-02-22T08:19:09.697Z,85.97
2018-02-22T08:20:19.758Z,86.35
2018-02-22T08:21:29.808Z,85.87
2018-02-22T08:22:39.348Z,85.87
2018-02-22T08:23:48.881Z,85.3
2018-02-22T08:24:58.678Z,85.82
2018-02-22T08:26:08.218Z,85.44
2018-02-22T08:27:18.277Z,85.72
2018-02-22T08:28:28.336Z,85.35
2018-02-22T08:29:38.152Z,85.06
2018-02-22T08:30:47.954Z,85.35
2018-02-22T08:31:58.033Z,85.44
2018-02-22T08:33:07.582Z,84.97
2018-02-22T08:34:17.652Z,85.44
2018-02-22T08:35:27.181Z,85.16
2018-02-22T08:36:36.719Z,84.78
2018-02-22T08:37:46.790Z,84.78
2018-02-22T08:38:56.437Z,85.35
2018-02-22T08:40:06.681Z,85.06
2018-02-22T08:41:16.469Z,85.58
2018-02-22T08:42:26.257Z,85.2
2018-02-22T08:43:35.813Z,85.3
2018-02-22T08:44:45.927Z,85.49
2018-02-22T08:45:54.927Z,85.01
2018-02-22T08:47:04.723Z,85.49
2018-02-22T08:48:13.999Z,84.82
2018-02-22T08:49:23.804Z,84.91
2018-02-22T08:50:33.618Z,84.91
2018-02-22T08:51:43.665Z,84.91
2018-02-22T08:52:53.469Z,84.67
2018-02-22T08:54:03.523Z,84.77
2018-02-22T08:55:13.060Z,84.67
2018-02-22T08:56:22.592Z,84.2
2018-02-22T08:57:32.660Z,84.29
2018-02-22T08:58:42.720Z,84.33
2018-02-22T08:59:52.518Z,84.14
2018-02-22T09:01:02.582Z,84.24
2018-02-22T09:02:13.347Z,84.81
2018-02-22T09:03:23.131Z,85
2018-02-22T09:04:32.940Z,85.72
2018-02-22T09:05:42.760Z,85.34
2018-02-22T09:06:52.822Z,85.53
2018-02-22T09:08:02.889Z,85.91
2018-02-22T09:09:12.701Z,86.1
2018-02-22T09:10:22.763Z,86
2018-02-22T09:11:32.552Z,85.62
2018-02-22T09:12:42.664Z,85.81
2018-02-22T09:13:52.476Z,85.43
2018-02-22T09:15:02.537Z,84.95
2018-02-22T09:16:12.597Z,85.19
2018-02-22T09:17:22.405Z,84.72
2018-02-22T09:18:32.206Z,84.72
2018-02-22T09:19:42.273Z,84.52
2018-02-22T09:20:51.811Z,84.33
2018-02-22T09:22:01.346Z,84.72
2018-02-22T09:23:11.406Z,84.72
2018-02-22T09:24:21.485Z,84.91
2018-02-22T09:25:31.545Z,85
2018-02-22T09:26:41.599Z,85.53
2018-02-22T09:27:51.661Z,85.62
2018-02-22T09:29:01.727Z,85.86
2018-02-22T09:30:11.594Z,85.72
2018-02-22T09:31:21.396Z,85.72
2018-02-22T09:32:31.192Z,86.24
2018-02-22T09:33:41.239Z,85.62
2018-02-22T09:34:51.030Z,86.19
2018-02-22T09:36:00.825Z,85.81
2018-02-22T09:37:10.888Z,86.29
2018-02-22T09:38:20.996Z,86.67
2018-02-22T09:39:30.529Z,85.91
2018-02-22T09:40:39.804Z,86.1
2018-02-22T09:41:49.877Z,85.91
2018-02-22T09:43:01.380Z,85.62
2018-02-22T09:44:11.178Z,85.62
2018-02-22T09:45:20.957Z,85.24
2018-02-22T09:46:31.102Z,84.95
2018-02-22T09:47:40.412Z,84.77
2018-02-22T09:48:50.481Z,84.91
2018-02-22T09:50:00.279Z,85.1
2018-02-22T09:51:10.077Z,84.91
2018-02-22T09:52:19.862Z,84.52
2018-02-22T09:53:29.383Z,84.38
2018-02-22T09:54:39.177Z,83.9
2018-02-22T09:55:49.232Z,83.62
2018-02-22T09:56:59.292Z,84
2018-02-22T09:58:09.110Z,84.28
2018-02-22T09:59:19.187Z,84.09
2018-02-22T10:00:28.983Z,84.33
2018-02-22T10:01:39.064Z,83.75
2018-02-22T10:02:49.119Z,83.56
2018-02-22T10:03:59.180Z,83.75
2018-02-22T10:05:08.988Z,83.85
2018-02-22T10:06:18.800Z,83.94
2018-02-22T10:07:28.613Z,84.33
2018-02-22T10:08:38.424Z,84.61
2018-02-22T10:09:48.494Z,84.61
2018-02-22T10:10:58.047Z,84.33
2018-02-22T10:12:07.869Z,84.33
2018-02-22T10:13:17.419Z,84.33
2018-02-22T10:14:26.684Z,84.13
2018-02-22T10:15:36.746Z,84.42
2018-02-22T10:16:46.864Z,84.23
2018-02-22T10:17:57.226Z,84.89
2018-02-22T10:19:07.309Z,84.61
2018-02-22T10:20:17.105Z,84.7
2018-02-22T10:21:26.630Z,84.8
2018-02-22T10:22:36.684Z,84.8
2018-02-22T10:23:46.475Z,85.61
2018-02-22T10:24:56.554Z,85.9
2018-02-22T10:26:07.746Z,85.99
2018-02-22T10:27:17.673Z,85.95
2018-02-22T10:28:27.819Z,86.33
2018-02-22T10:29:37.620Z,86.43
2018-02-22T10:30:47.675Z,86.52
2018-02-22T10:31:57.756Z,86.33
2018-02-22T10:33:07.578Z,86.1
2018-02-22T10:34:17.105Z,86.43
2018-02-22T10:35:27.146Z,86.29
2018-02-22T10:36:36.415Z,86.38
2018-02-22T10:37:46.461Z,86.52
2018-02-22T10:38:56.274Z,86.19
2018-02-22T10:40:07.408Z,85.95
2018-02-22T10:41:19.285Z,85.95
2018-02-22T10:42:29.379Z,85.86
2018-02-22T10:43:39.429Z,85.76
2018-02-22T10:44:49.564Z,86.24
2018-02-22T10:45:59.642Z,85.57
2018-02-22T10:47:09.701Z,86.14
2018-02-22T10:48:19.786Z,85.95
2018-02-22T10:49:29.836Z,86.14
2018-02-22T10:50:39.933Z,86.05
2018-02-22T10:51:50.003Z,85.95
2018-02-22T10:53:00.061Z,85.86
2018-02-22T10:54:09.877Z,86.14
2018-02-22T10:55:19.418Z,86.67
2018-02-22T10:56:29.027Z,85.95
2018-02-22T10:57:39.121Z,86.1
2018-02-22T10:58:48.678Z,85.91
2018-02-22T10:59:58.755Z,86.05
2018-02-22T11:01:08.868Z,86.24
2018-02-22T11:02:19.112Z,86.05
2018-02-22T11:03:29.266Z,85.57
2018-02-22T11:04:39.484Z,85.66
2018-02-22T11:05:49.343Z,85.57
2018-02-22T11:06:59.149Z,85.66
2018-02-22T11:08:09.021Z,85.66
2018-02-22T11:09:18.817Z,85.76
2018-02-22T11:10:29.016Z,85.76
2018-02-22T11:11:38.844Z,85.76
2018-02-22T11:12:48.906Z,86.05
2018-02-22T11:13:58.499Z,85.57
2018-02-22T11:15:08.574Z,85.57
2018-02-22T11:16:17.856Z,85.47
2018-02-22T11:17:27.653Z,85.76
2018-02-22T11:18:37.727Z,85.47
2018-02-22T11:19:47.894Z,85.14
2018-02-22T11:20:57.389Z,85.24
2018-02-22T11:22:07.502Z,85.04
2018-02-22T11:23:17.303Z,84.95
2018-02-22T11:24:26.588Z,84.95
2018-02-22T11:25:36.137Z,84.95
2018-02-22T11:26:46.252Z,85.24
2018-02-22T11:27:56.323Z,84.85
2018-02-22T11:29:06.566Z,85.04
2018-02-22T11:30:16.636Z,85.24
2018-02-22T11:31:26.454Z,84.85
2018-02-22T11:32:36.273Z,84.95
2018-02-22T11:33:46.330Z,84.95
2018-02-22T11:34:55.853Z,84.95
2018-02-22T11:36:05.958Z,84.85
2018-02-22T11:37:15.790Z,84.85
2018-02-22T11:38:25.935Z,85.04
2018-02-22T11:39:36.050Z,84.95
2018-02-22T11:40:45.610Z,85.14
2018-02-22T11:41:55.438Z,84.76
2018-02-22T11:43:05.274Z,84.76
2018-02-22T11:44:14.814Z,84.85
2018-02-22T11:45:24.909Z,84.76
2018-02-22T11:46:35.009Z,85.18
2018-02-22T11:47:44.835Z,85.28
2018-02-22T11:48:54.907Z,85.18
2018-02-22T11:50:05.189Z,84.99
2018-02-22T11:51:15.043Z,84.8
2018-02-22T11:52:25.105Z,84.89
2018-02-22T11:53:34.931Z,85.08
2018-02-22T11:54:44.747Z,85.08
2018-02-22T11:55:54.848Z,85.08
2018-02-22T11:57:04.391Z,85.08
2018-02-22T11:58:15.017Z,84.89
2018-02-22T11:59:24.915Z,84.89
2018-02-22T12:00:34.991Z,84.52
2018-02-22T12:01:44.796Z,84.42
2018-02-22T12:02:54.338Z,84.13
2018-02-22T12:04:04.394Z,84.46
2018-02-22T12:05:13.989Z,84.36
2018-02-22T12:06:23.794Z,84.46
2018-02-22T12:07:33.863Z,84.36
2018-02-22T12:08:43.932Z,83.8
2018-02-22T12:09:53.504Z,83.55
2018-02-22T12:11:03.305Z,83.89
2018-02-22T12:12:13.367Z,84.22
2018-02-22T12:13:23.480Z,84.12
2018-02-22T12:14:33.285Z,83.74
2018-02-22T12:15:43.378Z,83.65
2018-02-22T12:16:53.438Z,83.55
2018-02-22T12:18:03.506Z,84.22
2018-02-22T12:19:13.313Z,83.65
2018-02-22T12:20:23.382Z,84.22
2018-02-22T12:21:33.188Z,83.93
2018-02-22T12:22:43.249Z,84.41
2018-02-22T12:23:53.307Z,84.69
2018-02-22T12:25:03.165Z,84.5
2018-02-22T12:26:13.384Z,84.5
2018-02-22T12:27:23.469Z,84.88
2018-02-22T12:28:33.561Z,84.88
2018-02-22T12:29:44.205Z,84.88
2018-02-22T12:30:54.031Z,84.75
2018-02-22T12:32:04.111Z,84.5
2018-02-22T12:33:13.974Z,84.75
2018-02-22T12:34:24.565Z,84.46
2018-02-22T12:35:34.672Z,84.84
2018-02-22T12:36:44.469Z,84.75
2018-02-22T12:37:54.526Z,85.13
2018-02-22T12:39:04.398Z,85.32
2018-02-22T12:43:00.839Z,84.8
2018-02-22T12:44:10.647Z,84.99
2018-02-22T12:45:20.488Z,85.08
2018-02-22T12:46:30.549Z,84.89
2018-02-22T12:47:40.648Z,85.03
2018-02-22T12:48:50.731Z,85.18
2018-02-22T12:50:00.265Z,84.7
2018-02-22T12:51:10.367Z,84.99
2018-02-22T12:52:19.926Z,85.18
2018-02-22T12:53:29.737Z,85.42
2018-02-22T12:54:39.533Z,85.9
2018-02-22T12:55:49.584Z,86.09
2018-02-22T12:56:59.118Z,86.28
2018-02-22T12:58:08.648Z,86.18
2018-02-22T12:59:18.736Z,86.18
2018-02-22T13:00:28.675Z,86.09
2018-02-22T13:01:38.509Z,86.09
2018-02-22T13:02:48.107Z,86.09
2018-02-22T13:03:59.393Z,85.99
2018-02-22T13:05:09.248Z,86.28
2018-02-22T13:06:19.380Z,86.09
2018-02-22T13:07:29.173Z,85.95
2018-02-22T13:08:38.973Z,85.95
2018-02-22T13:09:49.396Z,85.95
2018-02-22T13:10:59.467Z,86.05
2018-02-22T13:12:09.552Z,85.8
2018-02-22T13:13:19.645Z,85.61
2018-02-22T13:14:29.714Z,85.38
2018-02-22T13:15:39.787Z,85.42
2018-02-22T13:16:49.884Z,85.42
2018-02-22T13:18:00.038Z,85.24
2018-02-22T13:19:10.121Z,85.38
2018-02-22T13:20:19.960Z,85.57
2018-02-22T13:21:30.043Z,85.38
2018-02-22T13:22:39.748Z,85.66
2018-02-22T13:23:49.894Z,85.66
2018-02-22T13:24:59.457Z,85.61
2018-02-22T13:26:09.278Z,85.61
2018-02-22T13:27:19.373Z,85.61
2018-02-22T13:28:29.477Z,85.52
2018-02-22T13:29:39.319Z,85.38
2018-02-22T13:30:49.153Z,85.57
2018-02-22T13:31:59.233Z,85.76
2018-02-22T13:33:09.052Z,85.86
2018-02-22T13:34:18.905Z,86.05
2018-02-22T13:35:29.925Z,86.24
2018-02-22T13:36:39.753Z,85.86
2018-02-22T13:37:51.064Z,85.95
2018-02-22T13:39:00.884Z,86.05
2018-02-22T13:40:10.711Z,86.05
2018-02-22T13:41:20.517Z,85.95
2018-02-22T13:42:29.799Z,86.33
2018-02-22T13:43:40.170Z,86.05
2018-02-22T13:44:49.979Z,86.24
2018-02-22T13:45:59.787Z,86.14
2018-02-22T13:47:11.240Z,86.38
2018-02-22T13:48:22.259Z,85.81
2018-02-22T13:49:32.074Z,86.19
2018-02-22T13:50:42.173Z,86.29
2018-02-22T13:51:52.259Z,86.47
2018-02-22T13:53:02.095Z,86.1
2018-02-22T13:54:11.887Z,86.1
2018-02-22T13:55:21.971Z,86.29
2018-02-22T13:56:31.785Z,86.47
2018-02-22T13:57:41.614Z,86.38
2018-02-22T13:58:51.496Z,86.29
2018-02-22T14:00:01.307Z,86.29
2018-02-22T14:01:11.130Z,86.57
2018-02-22T14:02:20.936Z,86.29
2018-02-22T14:03:31.011Z,86.38
2018-02-22T14:04:41.206Z,86.53
2018-02-22T14:05:51.010Z,86.34
2018-02-22T14:07:01.084Z,86.34
2018-02-22T14:08:10.919Z,86.72
2018-02-22T14:09:20.733Z,86.43
2018-02-22T14:10:30.652Z,86.63
2018-02-22T14:11:41.780Z,87.1
2018-02-22T14:12:51.837Z,86.63
2018-02-22T14:14:01.673Z,86.53
2018-02-22T14:15:11.468Z,86.91
2018-02-22T14:16:21.534Z,86.63
2018-02-22T14:17:31.648Z,86.63
2018-02-22T14:18:41.466Z,86.82
2018-02-22T14:19:51.273Z,86.53
2018-02-22T14:21:00.819Z,87.01
2018-02-22T14:22:10.690Z,86.53
2018-02-22T14:23:20.778Z,86.43
2018-02-22T14:24:30.824Z,86.63
2018-02-22T14:25:40.628Z,86.34
2018-02-22T14:26:50.456Z,86.82
2018-02-22T14:28:00.533Z,86.43
2018-02-22T14:29:10.400Z,86.24
2018-02-22T14:30:20.005Z,86.82
2018-02-22T14:31:30.066Z,86.24
2018-02-22T14:32:40.156Z,86.34
2018-02-22T14:33:49.763Z,86.53
2018-02-22T14:34:59.565Z,86.82
2018-02-22T14:36:09.655Z,86.82
2018-02-22T14:37:19.458Z,86.82
2018-02-22T14:38:29.279Z,86.53
2018-02-22T14:39:39.396Z,86.34
2018-02-22T14:40:49.456Z,86.72
2018-02-22T14:41:59.578Z,86.63
2018-02-22T14:43:09.646Z,86.63
2018-02-22T14:44:19.727Z,86.63
2018-02-22T14:45:29.530Z,86.49
2018-02-22T14:46:39.457Z,87.34
2018-02-22T14:47:49.544Z,87.05
2018-02-22T14:48:59.361Z,87.05
2018-02-22T14:50:09.189Z,87.43
2018-02-22T14:51:18.778Z,86.87
2018-02-22T14:52:28.057Z,86.96
2018-02-22T14:53:37.852Z,86.96
2018-02-22T14:54:47.688Z,87.24
2018-02-22T14:55:57.758Z,87.24
2018-02-22T14:57:07.367Z,86.96
2018-02-22T14:58:17.178Z,87.05
2018-02-22T14:59:26.991Z,86.87
2018-02-22T15:00:38.182Z,87.24
2018-02-22T15:01:48.248Z,87.05
2018-02-22T15:02:58.324Z,86.87
2018-02-22T15:04:08.405Z,86.96
2018-02-22T15:05:18.220Z,86.82
2018-02-22T15:06:28.292Z,87.43
2018-02-22T15:07:38.370Z,87.11
2018-02-22T15:08:48.572Z,87.11
2018-02-22T15:09:58.649Z,87.34
2018-02-22T15:11:08.976Z,87.24
2018-02-22T15:12:18.782Z,86.87
2018-02-22T15:13:28.598Z,87.01
2018-02-22T15:14:38.425Z,87.05
2018-02-22T15:15:47.965Z,87.05
2018-02-22T15:16:58.047Z,87.01
2018-02-22T15:18:07.603Z,86.82
2018-02-22T15:19:17.678Z,87.11
2018-02-22T15:20:27.748Z,87.11
2018-02-22T15:21:37.837Z,87.3
2018-02-22T15:22:47.654Z,87.11
2018-02-22T15:23:57.718Z,87.39
2018-02-22T15:25:07.274Z,87.49
2018-02-22T15:26:17.379Z,87.2
2018-02-22T15:27:27.507Z,86.82
2018-02-22T15:28:37.587Z,87.11
2018-02-22T15:29:47.653Z,87.73
2018-02-22T15:30:57.466Z,87.63
2018-02-22T15:32:07.330Z,87.63
2018-02-22T15:33:16.897Z,87.54
2018-02-22T15:34:26.722Z,87.45
2018-02-22T15:35:36.803Z,87.54
2018-02-22T15:36:46.641Z,87.35
2018-02-22T15:37:56.748Z,87.45
2018-02-22T15:39:06.537Z,87.54